createdAt,value
2023-04-01T00:00:40.291Z,8.51
2023-04-01T00:06:05.783Z,8.49
2023-04-01T00:11:38.137Z,8.59
2023-04-01T00:17:00.479Z,8.46
2023-04-01T00:22:23.527Z,8.43
2023-04-01T00:27:45.980Z,8.42
2023-04-01T00:33:10.508Z,8.41
2023-04-01T00:38:33.279Z,8.38
2023-04-01T00:43:57.381Z,8.36
2023-04-01T00:49:20.294Z,8.35
2023-04-01T00:54:44.880Z,8.34
2023-04-01T01:00:09.096Z,8.27
2023-04-01T01:05:46.316Z,8.22
2023-04-01T01:11:03.194Z,8.18
2023-04-01T01:16:48.495Z,8.07
2023-04-01T01:22:52.222Z,8.02
2023-04-01T01:28:57.294Z,7.98
2023-04-01T01:34:34.170Z,7.93
2023-04-01T01:40:02.978Z,7.92
2023-04-01T01:45:29.504Z,7.88
2023-04-01T01:50:55.163Z,7.84
2023-04-01T01:56:18.370Z,7.74
2023-04-01T02:01:45.549Z,7.69
2023-04-01T02:07:33.590Z,7.63
2023-04-01T02:13:09.481Z,7.72
2023-04-01T02:18:32.783Z,7.64
2023-04-01T02:23:56.111Z,7.61
2023-04-01T02:29:21.445Z,7.58
2023-04-01T02:34:44.797Z,7.51
2023-04-01T02:40:11.267Z,7.47
2023-04-01T02:45:34.853Z,7.43
2023-04-01T02:50:57.876Z,7.40
2023-04-01T02:56:21.303Z,7.35
2023-04-01T03:01:43.720Z,7.35
2023-04-01T03:07:06.196Z,7.32
2023-04-01T03:12:28.427Z,7.34
2023-04-01T03:17:52.867Z,7.34
2023-04-01T03:23:15.286Z,7.27
2023-04-01T03:28:37.538Z,7.21
2023-04-01T03:34:00.475Z,7.13
2023-04-01T03:39:23.276Z,7.01
2023-04-01T03:44:46.461Z,6.92
2023-04-01T03:50:08.945Z,6.83
2023-04-01T03:55:31.929Z,6.80
2023-04-01T04:00:56.302Z,6.78
2023-04-01T04:06:19.741Z,6.77
2023-04-01T04:11:44.172Z,6.64
2023-04-01T04:17:07.289Z,6.58
2023-04-01T04:22:29.560Z,6.48
2023-04-01T04:27:52.773Z,6.35
2023-04-01T04:33:15.102Z,6.32
2023-04-01T04:38:38.503Z,6.24
2023-04-01T04:44:06.804Z,6.18
2023-04-01T04:49:29.134Z,6.18
2023-04-01T04:54:51.402Z,6.12
2023-04-01T05:00:14.767Z,6.04
2023-04-01T05:05:37.036Z,5.91
2023-04-01T05:10:59.403Z,5.86
2023-04-01T05:16:25.312Z,5.67
2023-04-01T05:21:47.669Z,5.56
2023-04-01T05:27:10.465Z,5.41
2023-04-01T05:32:32.702Z,5.37
2023-04-01T05:37:55.585Z,5.37
2023-04-01T05:43:18.666Z,5.26
2023-04-01T05:48:41.604Z,5.28
2023-04-01T05:54:04.068Z,5.29
2023-04-01T05:59:26.508Z,5.24
2023-04-01T06:04:54.152Z,5.23
2023-04-01T06:10:27.584Z,5.22
2023-04-01T06:16:00.757Z,5.25
2023-04-01T06:21:47.169Z,5.25
2023-04-01T06:27:32.834Z,5.37
2023-04-01T06:33:21.471Z,5.34
2023-04-01T06:39:12.477Z,5.45
2023-04-01T06:50:50.462Z,5.84
2023-04-01T06:56:26.470Z,5.71
2023-04-01T07:01:53.687Z,5.78
2023-04-01T07:07:29.280Z,5.81
2023-04-01T07:13:08.295Z,5.85
2023-04-01T07:18:40.982Z,5.84
2023-04-01T07:24:07.413Z,5.89
2023-04-01T07:29:31.202Z,5.88
2023-04-01T07:35:14.094Z,5.81
2023-04-01T07:40:53.491Z,5.79
2023-04-01T07:46:31.336Z,5.80
2023-04-01T07:52:32.203Z,5.59
2023-04-01T07:58:02.283Z,5.59
2023-04-01T08:03:34.112Z,5.48
2023-04-01T08:09:09.931Z,5.36
2023-04-01T08:14:54.109Z,5.28
2023-04-01T08:20:24.663Z,5.31
2023-04-01T08:25:51.764Z,5.40
2023-04-01T08:31:27.815Z,5.57
2023-04-01T08:36:55.520Z,5.79
2023-04-01T08:42:40.800Z,5.99
2023-04-01T08:48:27.187Z,6.01
2023-04-01T08:54:15.518Z,6.03
2023-04-01T09:00:18.499Z,6.26
2023-04-01T09:22:51.065Z,6.32
2023-04-01T09:28:18.310Z,6.20
2023-04-01T09:34:04.844Z,6.27
2023-04-01T09:39:46.775Z,6.46
2023-04-01T09:45:24.023Z,6.54
2023-04-01T09:57:42.349Z,6.83
2023-04-01T10:03:35.855Z,6.57
2023-04-01T10:09:54.948Z,6.71
2023-04-01T10:15:46.695Z,6.82
2023-04-01T10:21:32.314Z,6.99
2023-04-01T10:27:32.466Z,7.05
2023-04-01T10:33:06.326Z,6.70
2023-04-01T10:38:42.410Z,6.85
2023-04-01T10:44:27.813Z,7.11
2023-04-01T10:50:18.597Z,6.94
2023-04-01T10:56:16.400Z,6.91
2023-04-01T11:02:03.942Z,6.86
2023-04-01T11:08:06.150Z,7.05
2023-04-01T11:13:50.653Z,7.05
2023-04-01T11:19:45.209Z,7.08
2023-04-01T11:25:21.360Z,7.22
2023-04-01T11:31:12.133Z,7.17
2023-04-01T11:37:15.548Z,6.64
2023-04-01T11:42:54.392Z,6.76
2023-04-01T11:48:44.935Z,6.94
2023-04-01T11:54:46.346Z,7.16
2023-04-01T12:00:57.046Z,7.15
2023-04-01T12:06:51.242Z,7.24
2023-04-01T12:12:30.162Z,7.21
2023-04-01T12:18:22.637Z,7.10
2023-04-01T12:24:15.782Z,6.94
2023-04-01T12:30:07.737Z,7.05
2023-04-01T12:36:03.940Z,6.99
2023-04-01T12:42:03.044Z,7.06
2023-04-01T12:47:39.662Z,6.88
2023-04-01T12:53:26.166Z,6.95
2023-04-01T12:59:24.858Z,7.25
2023-04-01T13:05:00.609Z,7.35
2023-04-01T13:10:53.782Z,7.29
2023-04-01T13:16:22.582Z,7.23
2023-04-01T13:22:28.252Z,7.09
2023-04-01T13:28:01.367Z,6.92
2023-04-01T13:33:45.772Z,6.92
2023-04-01T13:39:24.602Z,6.83
2023-04-01T13:45:26.252Z,6.83
2023-04-01T13:51:21.641Z,6.77
2023-04-01T13:57:08.341Z,6.55
2023-04-01T14:03:26.454Z,6.59
2023-04-01T14:09:45.624Z,6.53
2023-04-01T14:15:43.074Z,6.37
2023-04-01T14:21:30.883Z,6.31
2023-04-01T14:27:31.477Z,6.21
2023-04-01T14:33:30.342Z,6.14
2023-04-01T14:39:24.694Z,6.15
2023-04-01T14:45:11.383Z,6.07
2023-04-01T14:50:39.155Z,5.83
2023-04-01T14:56:06.653Z,5.77
2023-04-01T15:01:43.831Z,5.71
2023-04-01T15:07:40.131Z,5.57
2023-04-01T15:13:13.534Z,5.56
2023-04-01T15:18:55.845Z,5.38
2023-04-01T15:24:49.745Z,5.36
2023-04-01T15:30:56.761Z,5.21
2023-04-01T15:36:41.659Z,5.12
2023-04-01T15:42:42.588Z,5.10
2023-04-01T15:48:28.463Z,4.90
2023-04-01T15:54:14.622Z,4.85
2023-04-01T15:59:50.614Z,4.83
2023-04-01T16:05:46.054Z,4.69
2023-04-01T16:11:42.404Z,4.54
2023-04-01T16:17:53.478Z,4.47
2023-04-01T16:23:32.333Z,4.40
2023-04-01T16:29:18.406Z,4.22
2023-04-01T16:35:04.082Z,4.15
2023-04-01T16:40:46.260Z,4.08
2023-04-01T16:46:42.799Z,3.99
2023-04-01T16:52:18.496Z,3.91
2023-04-01T16:58:04.926Z,3.70
2023-04-01T17:03:37.989Z,3.68
2023-04-01T17:09:14.040Z,3.59
2023-04-01T17:15:15.209Z,3.46
2023-04-01T17:21:09.635Z,3.42
2023-04-01T17:26:51.668Z,3.39
2023-04-01T17:32:58.235Z,3.32
2023-04-01T17:38:46.286Z,3.30
2023-04-01T17:44:22.437Z,3.28
2023-04-01T17:50:17.150Z,3.19
2023-04-01T17:56:07.991Z,3.15
2023-04-01T18:01:56.441Z,3.11
2023-04-01T18:08:03.247Z,2.93
2023-04-01T18:13:57.482Z,2.96
2023-04-01T18:19:26.811Z,2.96
2023-04-01T18:25:04.305Z,2.89
2023-04-01T18:30:37.664Z,2.87
2023-04-01T18:36:17.912Z,3.04
2023-04-01T18:42:20.975Z,2.91
2023-04-01T18:54:06.409Z,2.91
2023-04-01T18:59:34.287Z,2.78
2023-04-01T19:05:22.307Z,2.73
2023-04-01T19:11:15.629Z,2.65
2023-04-01T19:16:57.024Z,2.61
2023-04-01T19:22:59.826Z,2.62
2023-04-01T19:28:56.784Z,2.62
2023-04-01T19:34:36.030Z,2.57
2023-04-01T19:40:26.381Z,2.53
2023-04-01T19:45:53.525Z,2.46
2023-04-01T19:51:26.829Z,2.33
2023-04-01T19:57:26.981Z,2.22
2023-04-01T20:03:03.505Z,2.14
2023-04-01T20:09:06.565Z,2.10
2023-04-01T20:14:52.399Z,2.19
2023-04-01T20:20:24.027Z,2.05
2023-04-01T20:25:47.969Z,2.06
2023-04-01T20:31:36.630Z,2.01
2023-04-01T20:37:26.991Z,2.01
2023-04-01T20:42:57.164Z,2.03
2023-04-01T20:48:42.823Z,2.02
2023-04-01T20:54:44.408Z,2.04
2023-04-01T21:00:32.845Z,2.14
2023-04-01T21:06:31.868Z,2.03
2023-04-01T21:12:35.271Z,2.07
2023-04-01T21:18:39.985Z,2.05
2023-04-01T21:24:22.083Z,2.08
2023-04-01T21:30:01.409Z,2.03
2023-04-01T21:35:38.047Z,2.03
2023-04-01T21:41:29.773Z,2.01
2023-04-01T21:47:18.984Z,2.13
2023-04-01T21:52:51.172Z,2.03
2023-04-01T21:58:56.271Z,2.06
2023-04-01T22:04:37.704Z,2.04
2023-04-01T22:10:20.006Z,2.05
2023-04-01T22:16:12.420Z,2.07
2023-04-01T22:22:03.091Z,2.15
2023-04-01T22:28:00.397Z,2.14
2023-04-01T22:33:54.712Z,2.03
2023-04-01T22:39:43.432Z,2.02
2023-04-01T22:45:49.786Z,2.05
2023-04-01T22:51:36.100Z,2.12
2023-04-01T22:57:24.357Z,2.01
2023-04-01T23:03:13.060Z,2.04
2023-04-01T23:09:04.553Z,2.01
2023-04-01T23:14:52.403Z,2.02
2023-04-01T23:20:48.351Z,2.03
2023-04-01T23:26:27.755Z,1.99
2023-04-01T23:32:05.864Z,2.03
2023-04-01T23:37:29.985Z,2.02
2023-04-01T23:42:59.988Z,2.01
2023-04-01T23:48:17.952Z,1.99
2023-04-01T23:53:48.813Z,1.97
2023-04-01T23:59:12.613Z,1.97
